Time;durP1;ratioP1;P1;durP2;ratioP2;P2;SDS_P1;SDS_P2;PMS_P1;PMS_P2;Temp;Humidity;BMP_temperature;BMP_pressure;BME280_temperature;BME280_humidity;BME280_pressure;Samples;Min_cycle;Max_cycle;Signal;HPM_P1;HPM_P2
2021/03/12 00:01:09;;;;;;;34.23;17.10;;;;;;;4.10;52.01;97739.78;124245;1105;104259;-73
2021/03/12 00:03:38;;;;;;;34.40;17.23;;;;;;;4.03;52.44;97715.68;124271;1105;104265;-73
2021/03/12 00:06:08;;;;;;;35.93;17.00;;;;;;;3.94;52.20;97711.89;124207;1105;104190;-72
2021/03/12 00:08:40;;;;;;;27.97;12.83;;;;;;;3.86;52.43;97717.68;124237;1105;104160;-72
2021/03/12 00:11:10;;;;;;;33.07;15.53;;;;;;;3.80;52.83;97701.45;124264;1105;104184;-70
2021/03/12 00:13:40;;;;;;;35.17;18.03;;;;;;;3.80;52.61;97707.56;124096;1106;104259;-73
2021/03/12 00:16:09;;;;;;;34.70;16.43;;;;;;;3.80;52.88;97699.67;124202;1105;104277;-72
2021/03/12 00:18:44;;;;;;;36.37;17.07;;;;;;;3.82;53.17;97684.63;124077;1105;104265;-73
2021/03/12 00:21:13;;;;;;;30.80;14.23;;;;;;;3.82;53.11;97683.77;124209;1105;104276;-72
2021/03/12 00:23:41;;;;;;;29.43;12.73;;;;;;;3.82;52.67;97707.45;123904;1105;104447;-73
2021/03/12 00:26:09;;;;;;;33.53;16.20;;;;;;;3.82;53.37;97708.30;124233;1105;104156;-73
2021/03/12 00:28:37;;;;;;;30.27;15.37;;;;;;;3.83;53.44;97720.52;124307;1105;104289;-72
2021/03/12 00:31:07;;;;;;;35.00;17.45;;;;;;;3.85;53.61;97713.36;124329;1105;104281;-73
2021/03/12 00:33:36;;;;;;;34.03;14.63;;;;;;;3.82;53.86;97737.23;124288;1105;104255;-74
2021/03/12 00:36:06;;;;;;;35.60;17.33;;;;;;;3.80;53.69;97739.13;124032;1105;104188;-74
2021/03/12 00:38:33;;;;;;;33.80;16.77;;;;;;;3.77;54.23;97757.73;124262;1105;104653;-73
2021/03/12 00:41:07;;;;;;;33.57;16.27;;;;;;;3.75;53.38;97764.03;124239;1105;104248;-74
2021/03/12 00:43:37;;;;;;;31.73;15.47;;;;;;;3.72;54.58;97765.91;124266;1105;104614;-74
2021/03/12 00:46:09;;;;;;;33.33;17.47;;;;;;;3.69;54.35;97750.33;124290;1105;104271;-73
2021/03/12 00:48:39;;;;;;;35.00;15.63;;;;;;;3.63;54.54;97750.77;124330;1105;104248;-73
2021/03/12 00:51:09;;;;;;;37.27;19.30;;;;;;;3.54;54.39;97739.03;124274;1105;104169;-73
2021/03/12 00:53:36;;;;;;;33.57;18.17;;;;;;;3.48;54.39;97749.12;124185;1105;104184;-72
2021/03/12 00:56:03;;;;;;;34.03;16.87;;;;;;;3.43;54.63;97750.26;124252;1105;104191;-72
2021/03/12 00:58:32;;;;;;;32.50;16.23;;;;;;;3.32;55.75;97744.84;124290;1105;104163;-72
2021/03/12 01:01:00;;;;;;;34.50;18.27;;;;;;;3.24;55.48;97752.41;124268;1105;104297;-72
2021/03/12 01:03:29;;;;;;;37.67;18.47;;;;;;;3.20;54.91;97766.67;124249;1105;104184;-72
2021/03/12 01:05:59;;;;;;;33.13;17.87;;;;;;;3.18;55.25;97760.67;124289;1105;104179;-73
2021/03/12 01:08:26;;;;;;;38.03;20.40;;;;;;;3.15;55.52;97768.75;124296;1105;104267;-73
2021/03/12 01:10:52;;;;;;;36.90;17.35;;;;;;;3.10;56.03;97783.02;124316;1105;104162;-74
2021/03/12 01:13:19;;;;;;;37.90;17.73;;;;;;;3.06;56.33;97786.77;124291;1105;104318;-73
2021/03/12 01:15:46;;;;;;;33.73;17.57;;;;;;;3.04;56.40;97767.63;124264;1105;104261;-74
2021/03/12 01:18:15;;;;;;;37.95;18.48;;;;;;;3.01;55.66;97773.08;124311;1105;104166;-73
2021/03/12 01:20:44;;;;;;;39.07;20.23;;;;;;;3.01;56.47;97769.63;124292;1105;104310;-73
2021/03/12 01:23:11;;;;;;;38.00;19.13;;;;;;;2.98;55.99;97765.38;124380;1105;104219;-73
2021/03/12 01:25:45;;;;;;;34.70;15.97;;;;;;;2.97;57.74;97766.32;124091;1105;104675;-73
2021/03/12 01:28:14;;;;;;;36.53;18.77;;;;;;;2.92;56.04;97769.25;124327;1105;104261;-73
2021/03/12 01:30:46;;;;;;;38.23;19.30;;;;;;;2.87;56.68;97771.31;124335;1105;104315;-75
2021/03/12 01:33:13;;;;;;;35.13;17.87;;;;;;;2.82;56.83;97753.23;124318;1105;104300;-73
2021/03/12 01:35:43;;;;;;;36.70;18.25;;;;;;;2.81;57.28;97761.18;124335;1105;104181;-74
2021/03/12 01:38:13;;;;;;;41.00;22.53;;;;;;;2.80;57.18;97772.62;124322;1105;104334;-73
2021/03/12 01:40:46;;;;;;;39.80;21.27;;;;;;;2.80;56.67;97743.73;124321;1105;104194;-73
2021/03/12 01:43:16;;;;;;;39.58;21.12;;;;;;;2.80;57.01;97748.98;124334;1106;104220;-74
2021/03/12 01:45:50;;;;;;;40.27;21.23;;;;;;;2.78;57.31;97729.86;124316;1105;104261;-72
2021/03/12 01:48:23;;;;;;;42.73;20.17;;;;;;;2.81;57.24;97755.94;124178;1106;104187;-72
2021/03/12 01:51:03;;;;;;;39.40;20.50;;;;;;;2.82;57.50;97741.86;124052;1105;104312;-72
2021/03/12 01:53:34;;;;;;;44.30;21.60;;;;;;;2.81;57.56;97750.68;124248;1105;104265;-75
2021/03/12 01:56:04;;;;;;;35.17;20.03;;;;;;;2.80;58.12;97752.48;124300;1105;104264;-72
2021/03/12 01:58:31;;;;;;;41.97;22.23;;;;;;;2.79;58.02;97729.78;124298;1105;104252;-74
2021/03/12 02:01:00;;;;;;;39.07;20.60;;;;;;;2.76;58.03;97739.61;124069;1106;104265;-72
2021/03/12 02:03:32;;;;;;;41.90;24.47;;;;;;;2.71;57.91;97733.80;124265;1105;104341;-72
2021/03/12 02:06:05;;;;;;;39.37;22.57;;;;;;;2.67;59.06;97733.98;124266;1105;104210;-72
2021/03/12 02:08:31;;;;;;;37.63;21.27;;;;;;;2.65;59.46;97700.91;124297;1105;104230;-71
2021/03/12 02:10:58;;;;;;;36.57;18.57;;;;;;;2.64;59.72;97736.83;124312;1105;105051;-72
2021/03/12 02:13:40;;;;;;;39.50;21.15;;;;;;;2.64;58.97;97728.09;124300;1105;104237;-74
2021/03/12 02:16:13;;;;;;;39.63;21.60;;;;;;;2.62;58.71;97730.83;124261;1105;104313;-73
2021/03/12 02:19:02;;;;;;;42.10;22.57;;;;;;;2.60;58.85;97753.70;124258;1105;104216;-74
2021/03/12 02:21:53;;;;;;;34.00;19.10;;;;;;;2.59;59.87;97745.91;124033;1106;104280;-74
2021/03/12 02:24:59;;;;;;;41.03;22.30;;;;;;;2.57;59.71;97766.16;124312;1105;104354;-74
2021/03/12 02:27:27;;;;;;;40.53;21.93;;;;;;;2.55;59.06;97784.64;124036;1106;104338;-73
2021/03/12 02:30:01;;;;;;;41.20;22.23;;;;;;;2.52;59.40;97759.41;124361;1105;104267;-72
2021/03/12 02:32:37;;;;;;;42.50;24.47;;;;;;;2.51;58.68;97760.34;124031;1105;104268;-71
2021/03/12 02:35:15;;;;;;;37.03;20.90;;;;;;;2.52;60.00;97771.70;124304;1105;104264;-72
2021/03/12 02:37:44;;;;;;;42.23;23.80;;;;;;;2.49;59.18;97774.51;124101;1105;104174;-74
2021/03/12 02:40:14;;;;;;;40.13;23.70;;;;;;;2.49;59.23;97780.59;124809;1105;104153;-73
2021/03/12 02:42:44;;;;;;;40.80;23.77;;;;;;;2.50;59.32;97787.52;124331;1105;104329;-71
2021/03/12 02:45:13;;;;;;;37.63;21.40;;;;;;;2.50;59.65;97773.57;124163;1105;104300;-73
2021/03/12 02:47:42;;;;;;;39.30;23.37;;;;;;;2.49;59.52;97772.71;124270;1105;104268;-71
2021/03/12 02:50:13;;;;;;;38.17;21.53;;;;;;;2.49;59.15;97759.59;124262;1105;104264;-73
2021/03/12 02:52:42;;;;;;;39.30;21.70;;;;;;;2.48;59.87;97768.40;124303;1105;104640;-73
2021/03/12 02:55:13;;;;;;;41.10;24.67;;;;;;;2.44;59.88;97764.30;124308;1105;104315;-72
2021/03/12 02:57:43;;;;;;;41.93;25.40;;;;;;;2.44;60.00;97756.42;124270;1105;104156;-72
2021/03/12 03:00:14;;;;;;;44.53;25.23;;;;;;;2.42;61.70;97770.56;124313;1105;104258;-72
2021/03/12 03:02:41;;;;;;;45.57;24.77;;;;;;;2.39;60.29;97768.98;124286;1105;104225;-72
2021/03/12 03:05:13;;;;;;;43.03;25.03;;;;;;;2.38;60.02;97790.91;124333;1105;104309;-71
2021/03/12 03:07:46;;;;;;;41.80;23.60;;;;;;;2.37;59.69;97774.30;124296;1105;104654;-71
2021/03/12 03:10:16;;;;;;;36.45;19.73;;;;;;;2.38;59.75;97783.03;124273;1105;104168;-71
2021/03/12 03:12:45;;;;;;;40.93;22.20;;;;;;;2.37;60.66;97782.17;124200;1105;104258;-71
2021/03/12 03:15:18;;;;;;;43.47;23.87;;;;;;;2.39;60.43;97784.73;124107;1105;104287;-72
2021/03/12 03:17:49;;;;;;;45.30;25.68;;;;;;;2.41;60.77;97782.86;124043;1105;104278;-74
2021/03/12 03:20:18;;;;;;;42.03;23.27;;;;;;;2.42;60.08;97781.92;124248;1105;104615;-73
2021/03/12 03:22:48;;;;;;;42.17;23.53;;;;;;;2.43;59.92;97786.23;124224;1105;104216;-72
2021/03/12 03:25:15;;;;;;;37.80;20.40;;;;;;;2.43;60.83;97778.36;124221;1105;104188;-72
2021/03/12 03:27:42;;;;;;;40.07;22.73;;;;;;;2.39;60.23;97771.60;123962;1105;104236;-72
2021/03/12 03:30:15;;;;;;;38.67;22.70;;;;;;;2.37;60.53;97786.59;124270;1105;104159;-72
2021/03/12 03:32:42;;;;;;;41.70;23.87;;;;;;;2.36;60.18;97782.28;124159;1105;104162;-74
2021/03/12 03:35:11;;;;;;;42.80;24.70;;;;;;;2.36;60.16;97782.28;124155;1105;104264;-74
2021/03/12 03:37:41;;;;;;;38.40;23.40;;;;;;;2.34;60.55;97771.03;124195;1105;104204;-73
2021/03/12 03:40:12;;;;;;;40.40;23.57;;;;;;;2.34;60.69;97765.78;124210;1105;104179;-74
2021/03/12 03:42:45;;;;;;;38.93;20.43;;;;;;;2.33;61.43;97771.97;124246;1105;104248;-74
2021/03/12 03:45:14;;;;;;;37.58;20.70;;;;;;;2.29;61.66;97762.59;124279;1105;104261;-73
2021/03/12 03:47:45;;;;;;;37.00;21.17;;;;;;;2.22;60.98;97759.50;124238;1105;104159;-73
2021/03/12 03:50:16;;;;;;;40.60;24.60;;;;;;;2.17;61.24;97737.94;124121;1105;104246;-73
2021/03/12 03:52:44;;;;;;;43.15;24.50;;;;;;;2.16;61.14;97734.45;124181;1105;104191;-72
2021/03/12 03:55:13;;;;;;;41.20;24.20;;;;;;;2.18;61.15;97766.69;124955;1105;103048;-73
2021/03/12 03:57:43;;;;;;;42.47;22.37;;;;;;;2.16;61.59;97755.44;124152;1105;104153;-73
2021/03/12 04:00:13;;;;;;;41.00;22.03;;;;;;;2.12;61.59;97732.95;124249;1105;104635;-73
2021/03/12 04:02:43;;;;;;;40.17;24.17;;;;;;;2.11;62.17;97746.16;124315;1105;104223;-74
2021/03/12 04:05:11;;;;;;;42.23;20.73;;;;;;;2.08;61.94;97755.91;124144;1105;104216;-73
2021/03/12 04:07:41;;;;;;;39.73;22.70;;;;;;;2.10;62.04;97762.84;124750;1105;104159;-73
2021/03/12 04:10:10;;;;;;;39.37;21.80;;;;;;;2.09;61.85;97759.36;124180;1105;104329;-74
2021/03/12 04:12:40;;;;;;;41.03;23.10;;;;;;;2.11;62.55;97759.28;124290;1105;104185;-74
2021/03/12 04:15:09;;;;;;;36.80;20.63;;;;;;;2.12;61.92;97760.97;124002;1105;104322;-72
2021/03/12 04:17:39;;;;;;;41.70;22.70;;;;;;;2.12;63.34;97753.09;124277;1105;104254;-74
2021/03/12 04:20:09;;;;;;;40.50;24.45;;;;;;;2.11;62.73;97735.67;124291;1105;104166;-74
2021/03/12 04:22:40;;;;;;;38.97;23.07;;;;;;;2.10;63.13;97733.98;124265;1105;104475;-73
2021/03/12 04:25:09;;;;;;;41.93;24.00;;;;;;;2.07;63.04;97729.75;124178;1105;104245;-73
2021/03/12 04:27:39;;;;;;;39.43;22.53;;;;;;;2.06;63.07;97733.30;124225;1105;104182;-73
2021/03/12 04:30:08;;;;;;;41.20;21.85;;;;;;;2.06;63.08;97726.30;124271;1105;104261;-73
2021/03/12 04:32:38;;;;;;;49.30;25.63;;;;;;;2.07;62.83;97729.75;124297;1105;104240;-74
2021/03/12 04:35:08;;;;;;;44.87;24.67;;;;;;;2.08;63.27;97728.81;124333;1105;104155;-74
2021/03/12 04:37:38;;;;;;;46.13;24.97;;;;;;;2.06;63.29;97728.92;124233;1105;104153;-74
2021/03/12 04:40:09;;;;;;;43.23;24.57;;;;;;;2.08;63.18;97726.19;124318;1106;104315;-73
2021/03/12 04:42:41;;;;;;;39.07;22.37;;;;;;;2.08;63.57;97744.55;124316;1105;104265;-74
2021/03/12 04:45:09;;;;;;;40.33;23.60;;;;;;;2.07;63.34;97738.48;123926;1105;102880;-74
2021/03/12 04:47:37;;;;;;;42.25;24.00;;;;;;;2.08;63.14;97747.17;124318;1105;104344;-75
2021/03/12 04:50:09;;;;;;;39.17;22.00;;;;;;;2.10;63.46;97744.47;124277;1105;104258;-75
2021/03/12 04:52:38;;;;;;;36.47;20.37;;;;;;;2.12;64.40;97747.85;124261;1105;104184;-75
2021/03/12 04:55:09;;;;;;;43.40;21.30;;;;;;;2.13;64.02;97766.11;124323;1105;104267;-75
2021/03/12 04:57:37;;;;;;;40.87;22.87;;;;;;;2.16;64.00;97783.47;124294;1105;104165;-75
2021/03/12 05:00:07;;;;;;;38.77;24.33;;;;;;;2.17;63.65;97779.91;124374;1105;104418;-75
2021/03/12 05:02:35;;;;;;;35.87;21.13;;;;;;;2.18;64.42;97782.43;124249;1106;104252;-76
2021/03/12 05:05:06;;;;;;;36.83;21.83;;;;;;;2.21;64.07;97781.42;124328;1105;104194;-73
2021/03/12 05:07:34;;;;;;;40.43;24.10;;;;;;;2.25;63.82;97795.19;124279;1105;104219;-74
2021/03/12 05:10:04;;;;;;;37.07;21.57;;;;;;;2.29;63.71;97786.20;124243;1105;104184;-74
2021/03/12 05:12:31;;;;;;;38.90;23.30;;;;;;;2.34;63.82;97778.91;124272;1105;104258;-74
2021/03/12 05:14:58;;;;;;;32.50;17.07;;;;;;;2.36;63.84;97771.78;124285;1106;104350;-75
2021/03/12 05:17:25;;;;;;;38.13;21.60;;;;;;;2.38;64.44;97773.37;124157;1105;104326;-73
2021/03/12 05:19:55;;;;;;;36.27;21.43;;;;;;;2.38;64.04;97768.12;124224;1105;104214;-77
2021/03/12 05:22:23;;;;;;;36.05;20.20;;;;;;;2.41;64.42;97777.61;124315;1105;104233;-75
2021/03/12 05:24:50;;;;;;;35.33;20.13;;;;;;;2.41;64.58;97787.24;124231;1105;104339;-75
2021/03/12 05:27:18;;;;;;;35.77;20.33;;;;;;;2.43;64.26;97798.49;124266;1105;104242;-73
2021/03/12 05:29:45;;;;;;;32.95;19.23;;;;;;;2.44;64.55;97797.56;124193;1105;104653;-75
2021/03/12 05:32:13;;;;;;;33.30;19.37;;;;;;;2.45;64.19;97807.13;124219;1105;104281;-75
2021/03/12 05:34:40;;;;;;;35.70;19.80;;;;;;;2.45;64.39;97807.13;124149;1106;104261;-73
2021/03/12 05:37:07;;;;;;;35.70;20.17;;;;;;;2.50;64.74;97815.57;124143;1105;104329;-74
2021/03/12 05:39:34;;;;;;;33.13;19.33;;;;;;;2.51;64.58;97823.34;124110;1105;104268;-76
2021/03/12 05:42:02;;;;;;;33.87;17.90;;;;;;;2.53;64.82;97820.64;124244;1105;104300;-75
2021/03/12 05:44:29;;;;;;;33.37;16.53;;;;;;;2.53;64.71;97828.52;124285;1105;104172;-76
2021/03/12 05:46:56;;;;;;;35.07;18.57;;;;;;;2.51;64.60;97828.59;124181;1105;104184;-77
2021/03/12 05:49:23;;;;;;;33.30;19.30;;;;;;;2.52;64.22;97811.91;124133;1105;104315;-75
2021/03/12 05:51:50;;;;;;;39.53;20.57;;;;;;;2.51;65.08;97815.47;124268;1105;105212;-76
2021/03/12 05:54:17;;;;;;;32.33;17.73;;;;;;;2.51;64.84;97841.72;124170;1105;104255;-75
2021/03/12 05:56:44;;;;;;;36.93;20.90;;;;;;;2.51;64.67;97833.84;124169;1105;104156;-75
2021/03/12 05:59:12;;;;;;;34.80;18.80;;;;;;;2.49;64.81;97824.38;124246;1105;104666;-76
2021/03/12 06:01:39;;;;;;;37.80;21.43;;;;;;;2.45;65.46;97826.33;124208;1105;104162;-75
2021/03/12 06:04:06;;;;;;;36.17;19.07;;;;;;;2.41;65.78;97829.23;124213;1106;104178;-76
2021/03/12 06:06:36;;;;;;;38.23;21.57;;;;;;;2.37;64.86;97836.45;124086;1105;104211;-76
2021/03/12 06:09:05;;;;;;;37.43;21.50;;;;;;;2.35;65.32;97839.16;124150;1105;104162;-76
2021/03/12 06:11:32;;;;;;;36.13;19.50;;;;;;;2.34;66.05;97861.09;124290;1105;104162;-75
2021/03/12 06:14:00;;;;;;;35.43;19.63;;;;;;;2.32;65.54;97872.63;124217;1105;104227;-76
2021/03/12 06:16:29;;;;;;;39.23;22.23;;;;;;;2.30;65.28;97875.31;124165;1105;104181;-74
2021/03/12 06:19:29;;;;;;;38.40;20.70;;;;;;;2.29;65.60;97878.88;123896;1105;104303;-77
2021/03/12 06:22:06;;;;;;;41.60;22.37;;;;;;;2.29;65.96;97867.55;124024;1105;104245;-75
2021/03/12 06:24:36;;;;;;;41.00;22.93;;;;;;;2.27;65.90;97875.48;124099;1105;104638;-76
2021/03/12 06:27:03;;;;;;;44.17;23.43;;;;;;;2.24;66.05;97878.32;124067;1105;104228;-75
2021/03/12 06:29:35;;;;;;;38.27;20.70;;;;;;;2.21;65.58;97868.00;124071;1105;104242;-76
2021/03/12 06:32:04;;;;;;;40.20;22.77;;;;;;;2.16;65.47;97881.36;125627;1105;104242;-75
2021/03/12 06:34:33;;;;;;;42.55;21.00;;;;;;;2.13;65.77;97897.28;124535;1105;104166;-76
2021/03/12 06:37:20;;;;;;;39.27;22.77;;;;;;;2.13;65.88;97896.45;126169;1105;102240;-77
2021/03/12 06:39:47;;;;;;;42.43;23.00;;;;;;;2.10;66.21;97886.96;125952;1105;104187;-77
2021/03/12 06:42:14;;;;;;;37.33;20.77;;;;;;;2.06;66.21;97881.05;124221;1106;104239;-76
2021/03/12 06:44:43;;;;;;;38.97;22.07;;;;;;;1.98;66.29;97872.77;124237;1105;104185;-76
2021/03/12 06:47:10;;;;;;;42.07;24.07;;;;;;;1.93;66.13;97862.55;124259;1105;104179;-76
2021/03/12 06:49:59;;;;;;;37.80;21.03;;;;;;;1.91;65.96;97867.04;124268;1105;104223;-77
2021/03/12 06:52:37;;;;;;;38.73;22.30;;;;;;;1.91;66.66;97876.67;124209;1105;104182;-79
2021/03/12 06:55:07;;;;;;;39.57;20.77;;;;;;;1.92;66.43;97897.58;124295;1105;104168;-75
2021/03/12 06:57:37;;;;;;;43.07;25.47;;;;;;;1.91;66.64;97884.53;125406;1105;102045;-77
2021/03/12 07:00:09;;;;;;;40.63;23.73;;;;;;;1.92;66.64;97880.98;124233;1105;104159;-77
2021/03/12 07:02:38;;;;;;;39.73;23.33;;;;;;;1.95;66.70;97885.23;123981;1105;104198;-77
2021/03/12 07:05:06;;;;;;;42.40;23.33;;;;;;;1.94;66.77;97892.23;124088;1105;104184;-79
2021/03/12 07:07:39;;;;;;;46.77;23.47;;;;;;;1.93;67.38;97909.77;124181;1105;104185;-77
2021/03/12 07:10:10;;;;;;;40.58;22.37;;;;;;;1.90;67.36;97917.80;124198;1105;104184;-78
2021/03/12 07:12:46;;;;;;;40.73;23.30;;;;;;;1.90;67.37;97916.94;124246;1105;104188;-77
2021/03/12 07:15:15;;;;;;;41.80;22.77;;;;;;;1.88;67.06;97930.15;124181;1105;104149;-78
2021/03/12 07:17:42;;;;;;;43.87;23.37;;;;;;;1.87;66.75;97941.56;124131;1105;104188;-78
2021/03/12 07:20:16;;;;;;;41.70;21.43;;;;;;;1.87;67.29;97957.30;124309;1105;104155;-77
2021/03/12 07:22:49;;;;;;;40.27;21.33;;;;;;;1.84;67.04;97943.50;124297;1105;104233;-77
2021/03/12 07:25:22;;;;;;;42.07;22.60;;;;;;;1.81;67.20;97936.66;124208;1105;104184;-77
2021/03/12 07:27:53;;;;;;;41.13;20.40;;;;;;;1.83;67.89;97944.45;124125;1105;104166;-74
2021/03/12 07:30:22;;;;;;;42.03;23.33;;;;;;;1.82;66.97;97930.48;124669;1105;102891;-77
2021/03/12 07:32:55;;;;;;;35.70;20.05;;;;;;;1.82;67.99;97921.78;124306;1105;104249;-79
2021/03/12 07:35:26;;;;;;;41.87;20.83;;;;;;;1.82;67.94;97933.11;124169;1105;104181;-77
2021/03/12 07:37:53;;;;;;;41.63;21.83;;;;;;;1.81;67.12;97936.66;124146;1105;104185;-78
2021/03/12 07:40:21;;;;;;;42.33;23.83;;;;;;;1.83;67.73;97934.80;124335;1105;104159;-78
2021/03/12 07:42:57;;;;;;;40.00;20.77;;;;;;;1.80;68.54;97913.98;124168;1105;104259;-78
2021/03/12 07:45:27;;;;;;;39.00;21.37;;;;;;;1.78;67.75;97932.44;124093;1105;104245;-78
2021/03/12 07:47:57;;;;;;;38.77;21.00;;;;;;;1.77;68.13;97930.75;125089;1105;104762;-77
2021/03/12 07:50:37;;;;;;;41.03;22.30;;;;;;;1.78;67.81;97934.20;124175;1105;104227;-77
2021/03/12 07:53:07;;;;;;;39.87;21.10;;;;;;;1.81;67.85;97935.83;124184;1105;104261;-77
2021/03/12 07:55:45;;;;;;;39.15;20.10;;;;;;;1.82;67.75;97935.73;124087;1106;104645;-76
2021/03/12 07:58:49;;;;;;;38.33;20.23;;;;;;;1.87;68.08;97925.83;124860;1105;104179;-71
2021/03/12 08:01:19;;;;;;;36.40;19.35;;;;;;;1.91;67.96;97942.23;123957;1106;104224;-73
2021/03/12 08:03:52;;;;;;;35.70;19.30;;;;;;;1.95;68.15;97933.27;124320;1105;104306;-72
2021/03/12 08:06:21;;;;;;;30.63;17.00;;;;;;;1.98;68.73;97942.76;124288;1105;104396;-74
2021/03/12 08:08:51;;;;;;;32.63;15.37;;;;;;;2.01;68.21;97939.97;124193;1105;104188;-71
2021/03/12 08:11:24;;;;;;;29.90;15.63;;;;;;;2.08;68.29;97936.91;124180;1105;104646;-71
2021/03/12 08:14:18;;;;;;;29.53;15.30;;;;;;;2.17;68.17;97943.40;123770;1105;104313;-71
2021/03/12 08:16:58;;;;;;;29.20;14.43;;;;;;;2.32;67.99;97940.84;124173;1109;104280;-70
2021/03/12 08:19:31;;;;;;;28.97;15.20;;;;;;;2.40;68.09;97954.38;124243;1105;104265;-74
2021/03/12 08:22:21;;;;;;;27.60;14.70;;;;;;;2.50;67.96;97946.81;124171;1105;104194;-74
2021/03/12 08:24:53;;;;;;;27.00;13.23;;;;;;;2.63;68.43;97946.95;124186;1105;104188;-73
2021/03/12 08:27:39;;;;;;;26.73;14.03;;;;;;;2.84;67.61;97963.23;124263;1105;104178;-73
2021/03/12 08:30:09;;;;;;;29.77;15.20;;;;;;;3.07;67.53;97964.48;124211;1105;104168;-73
2021/03/12 08:32:44;;;;;;;27.90;14.25;;;;;;;3.20;68.26;97967.22;124488;1105;104261;-71
2021/03/12 08:35:30;;;;;;;26.60;14.10;;;;;;;3.27;68.54;97970.31;124114;1105;104239;-71
2021/03/12 08:38:03;;;;;;;25.17;12.77;;;;;;;3.34;68.32;97955.86;123942;1106;104169;-73
2021/03/12 08:40:33;;;;;;;26.43;13.37;;;;;;;3.47;67.92;97955.95;123961;1105;104399;-74
2021/03/12 08:43:08;;;;;;;23.27;11.57;;;;;;;3.57;67.99;97959.71;124203;1105;104258;-73
2021/03/12 08:45:41;;;;;;;23.20;10.30;;;;;;;3.69;67.91;97962.53;124259;1105;104290;-74
2021/03/12 08:48:11;;;;;;;25.97;12.75;;;;;;;3.75;68.06;97948.14;124162;1105;104169;-74
2021/03/12 08:51:00;;;;;;;24.03;12.63;;;;;;;4.43;67.60;97942.02;124090;1105;104228;-75
2021/03/12 08:53:31;;;;;;;26.50;13.10;;;;;;;5.04;67.71;97944.16;123896;1109;104306;-74
2021/03/12 08:55:59;;;;;;;26.33;12.57;;;;;;;5.72;67.31;97938.59;124240;1105;104184;-72
2021/03/12 08:58:29;;;;;;;25.30;12.30;;;;;;;6.28;67.42;97939.10;124181;1105;104329;-73
2021/03/12 09:01:13;;;;;;;23.00;11.00;;;;;;;6.70;67.47;97939.52;124158;1105;104239;-73
2021/03/12 09:03:48;;;;;;;;;;;;;;;6.86;66.97;97939.20;124249;1105;104171;-75
2021/03/12 09:06:19;;;;;;;23.27;11.67;;;;;;;6.87;66.98;97950.61;124193;1105;104257;-74
2021/03/12 09:09:09;;;;;;;25.07;11.33;;;;;;;7.21;67.47;97937.45;124068;1105;104275;-74
2021/03/12 09:11:39;;;;;;;23.50;11.77;;;;;;;7.47;67.11;97942.55;124250;1105;104341;-74
2021/03/12 09:14:06;;;;;;;23.43;11.50;;;;;;;7.60;66.88;97956.48;124205;1105;104200;-73
2021/03/12 09:16:40;;;;;;;24.93;12.80;;;;;;;7.53;66.30;97958.77;123962;1105;104283;-72
2021/03/12 09:19:13;;;;;;;25.30;12.65;;;;;;;7.27;66.87;97966.94;123968;1106;104267;-75
2021/03/12 09:21:43;;;;;;;24.80;12.80;;;;;;;7.00;67.09;97961.95;124432;1105;104158;-75
2021/03/12 09:24:10;;;;;;;25.73;13.27;;;;;;;6.83;66.52;97966.69;124379;1105;104191;-74
2021/03/12 09:26:43;;;;;;;26.13;13.03;;;;;;;6.65;66.99;97958.34;124208;1105;104227;-78
2021/03/12 09:29:10;;;;;;;24.13;12.77;;;;;;;6.44;66.45;97968.70;124308;1105;104615;-71
2021/03/12 09:31:40;;;;;;;25.23;12.73;;;;;;;6.30;66.96;97963.61;125151;1105;104130;-72
2021/03/12 09:34:14;;;;;;;25.40;12.93;;;;;;;6.22;66.33;97970.28;124040;1105;104287;-73
2021/03/12 09:36:50;;;;;;;26.45;14.15;;;;;;;6.27;66.55;97972.58;124320;1105;104168;-74
2021/03/12 09:39:23;;;;;;;28.03;13.97;;;;;;;6.38;67.10;97977.92;124104;1105;104242;-75
2021/03/12 09:42:08;;;;;;;26.55;14.20;;;;;;;6.42;66.85;97975.06;124050;1105;104152;-72
2021/03/12 09:44:38;;;;;;;30.40;15.07;;;;;;;6.45;66.81;97972.20;124354;1105;104309;-73
2021/03/12 09:47:11;;;;;;;27.40;14.87;;;;;;;6.46;67.10;97977.36;124328;1105;104152;-74
2021/03/12 09:49:42;;;;;;;27.33;14.20;;;;;;;6.40;66.56;97961.95;124313;1105;104168;-75
2021/03/12 09:52:15;;;;;;;30.10;15.50;;;;;;;6.33;66.68;97965.99;124906;1105;104137;-74
2021/03/12 09:54:50;;;;;;;28.67;14.63;;;;;;;6.31;66.63;97968.76;124308;1105;104213;-74
2021/03/12 09:57:22;;;;;;;29.37;16.50;;;;;;;6.46;66.39;97964.14;124180;1105;104227;-74
2021/03/12 09:59:50;;;;;;;29.33;15.80;;;;;;;6.69;66.83;97962.45;124300;1105;104194;-74
2021/03/12 10:02:29;;;;;;;30.93;16.07;;;;;;;6.89;66.48;97961.91;124819;1105;104265;-73
2021/03/12 10:05:02;;;;;;;29.63;15.67;;;;;;;6.95;66.83;97962.27;124204;1105;104230;-73
2021/03/12 10:07:51;;;;;;;27.60;14.45;;;;;;;7.22;67.10;97963.80;124209;1106;104185;-75
2021/03/12 10:10:32;;;;;;;26.10;13.93;;;;;;;7.60;66.91;97962.62;124152;1105;104239;-72
2021/03/12 10:13:04;;;;;;;26.33;13.70;;;;;;;7.94;67.35;97956.48;124284;1105;104252;-72
2021/03/12 10:15:41;;;;;;;26.00;13.87;;;;;;;8.19;67.14;97946.55;124313;1105;104365;-72
2021/03/12 10:18:22;;;;;;;27.40;14.80;;;;;;;8.52;67.01;97957.22;124955;1105;104287;-75
2021/03/12 10:21:10;;;;;;;25.77;13.20;;;;;;;9.03;66.99;97966.26;124175;1105;104176;-72
2021/03/12 10:23:38;;;;;;;24.57;12.70;;;;;;;9.42;66.84;97960.33;125368;1105;104205;-73
2021/03/12 10:26:13;;;;;;;24.73;13.10;;;;;;;9.80;66.77;97964.13;124951;1105;104204;-74
2021/03/12 10:28:50;;;;;;;23.87;12.70;;;;;;;10.08;66.73;97965.21;124291;1105;104313;-73
2021/03/12 10:31:17;;;;;;;23.50;12.27;;;;;;;10.09;66.46;97971.38;124248;1105;104173;-75
2021/03/12 10:33:54;;;;;;;24.67;12.93;;;;;;;10.07;66.60;97963.53;124353;1105;104162;-75
2021/03/12 10:36:21;;;;;;;24.57;13.47;;;;;;;10.21;66.32;97948.19;124295;1106;104229;-72
2021/03/12 10:38:50;;;;;;;25.20;13.67;;;;;;;10.37;66.19;97959.14;124236;1105;104152;-72
2021/03/12 10:41:25;;;;;;;24.37;12.57;;;;;;;10.57;66.78;97960.03;124260;1105;104262;-74
2021/03/12 10:43:59;;;;;;;24.73;12.37;;;;;;;10.66;65.43;97953.03;124206;1105;104255;-73
2021/03/12 10:46:26;;;;;;;23.63;11.97;;;;;;;10.70;65.46;97946.45;124786;1105;104123;-74
2021/03/12 10:48:56;;;;;;;25.30;13.10;;;;;;;10.87;66.06;97944.91;124215;1105;104271;-75
2021/03/12 10:51:37;;;;;;;23.43;11.37;;;;;;;10.92;65.85;97947.12;124262;1105;104172;-74
2021/03/12 10:54:04;;;;;;;24.80;12.60;;;;;;;10.74;65.69;97951.49;124272;1105;104226;-74
2021/03/12 10:56:31;;;;;;;24.90;12.30;;;;;;;10.42;65.04;97953.42;124212;1105;104255;-74
2021/03/12 10:59:08;;;;;;;26.30;12.67;;;;;;;10.23;64.76;97944.41;124066;1105;104310;-72
2021/03/12 11:01:46;;;;;;;24.73;12.27;;;;;;;10.11;65.40;97940.20;124392;1105;104214;-72
2021/03/12 11:04:16;;;;;;;23.83;11.80;;;;;;;10.11;65.17;97946.34;124794;1105;104717;-75
2021/03/12 11:06:49;;;;;;;23.63;10.77;;;;;;;10.19;65.06;97942.17;124277;1105;104255;-76
2021/03/12 11:09:18;;;;;;;23.87;11.43;;;;;;;10.08;64.90;97943.95;124267;1105;104242;-75
2021/03/12 11:11:53;;;;;;;23.93;11.50;;;;;;;9.87;64.62;97948.52;124220;1105;104230;-73
2021/03/12 11:14:30;;;;;;;25.37;13.27;;;;;;;9.51;64.64;97963.06;124184;1105;104286;-75
2021/03/12 11:16:57;;;;;;;24.90;13.63;;;;;;;9.22;64.48;97986.77;124267;1105;104187;-73
2021/03/12 11:19:29;;;;;;;24.30;12.00;;;;;;;8.93;64.23;97992.72;124230;1104;104153;-73
2021/03/12 11:21:56;;;;;;;19.05;8.30;;;;;;;8.62;64.50;97984.62;124272;1104;104232;-74
2021/03/12 11:24:23;;;;;;;18.20;7.58;;;;;;;8.29;64.43;97958.09;124312;1105;104198;-75
2021/03/12 11:26:50;;;;;;;17.13;6.63;;;;;;;8.05;64.25;97956.44;124237;1105;104246;-72
2021/03/12 11:29:19;;;;;;;17.87;6.50;;;;;;;8.02;65.05;97956.69;124247;1105;104712;-73